createdAt,value
2018-08-11T00:02:14.172Z,13.93
2018-08-11T00:04:43.067Z,13.86
2018-08-11T00:07:11.748Z,13.86
2018-08-11T00:09:40.681Z,13.74
2018-08-11T00:12:09.552Z,13.71
2018-08-11T00:14:38.491Z,13.65
2018-08-11T00:17:07.642Z,13.62
2018-08-11T00:19:36.283Z,13.56
2018-08-11T00:22:04.882Z,13.54
2018-08-11T00:24:33.572Z,13.51
2018-08-11T00:27:02.581Z,13.46
2018-08-11T00:29:31.711Z,13.52
2018-08-11T00:32:00.624Z,13.47
2018-08-11T00:34:29.917Z,13.44
2018-08-11T00:36:59.411Z,13.42
2018-08-11T00:39:28.081Z,13.49
2018-08-11T00:41:56.843Z,13.51
2018-08-11T00:44:25.573Z,13.51
2018-08-11T00:46:54.324Z,13.49
2018-08-11T00:49:23.996Z,13.51
2018-08-11T00:51:52.803Z,13.56
2018-08-11T00:54:22.162Z,13.46
2018-08-11T00:56:50.937Z,13.44
2018-08-11T00:59:20.478Z,13.36
2018-08-11T01:01:49.257Z,13.35
2018-08-11T01:04:18.001Z,13.35
2018-08-11T01:06:46.849Z,13.37
2018-08-11T01:09:16.399Z,13.35
2018-08-11T01:11:45.257Z,13.38
2018-08-11T01:14:13.968Z,13.38
2018-08-11T01:16:43.108Z,13.35
2018-08-11T01:19:11.781Z,13.26
2018-08-11T01:21:40.530Z,13.30
2018-08-11T01:24:09.398Z,13.26
2018-08-11T01:26:38.038Z,13.27
2018-08-11T01:29:07.373Z,13.21
2018-08-11T01:31:36.149Z,13.26
2018-08-11T01:34:05.687Z,13.23
2018-08-11T01:36:34.552Z,13.18
2018-08-11T01:39:04.479Z,13.16
2018-08-11T01:41:34.368Z,13.21
2018-08-11T01:44:03.262Z,13.15
2018-08-11T01:46:32.084Z,13.14
2018-08-11T01:49:02.123Z,13.17
2018-08-11T01:51:31.422Z,13.18
2018-08-11T01:54:00.148Z,13.15
2018-08-11T01:56:28.838Z,13.14
2018-08-11T01:58:57.982Z,13.06
2018-08-11T02:01:26.802Z,13.05
2018-08-11T02:03:55.628Z,13.00
2018-08-11T02:06:24.775Z,13.06
2018-08-11T02:08:53.498Z,13.08
2018-08-11T02:11:22.958Z,13.01
2018-08-11T02:13:52.238Z,13.06
2018-08-11T02:16:20.918Z,13.02
2018-08-11T02:18:49.744Z,12.96
2018-08-11T02:21:18.669Z,12.94
2018-08-11T02:23:48.019Z,12.93
2018-08-11T02:26:16.664Z,13.00
2018-08-11T02:28:45.375Z,12.92
2018-08-11T02:31:14.005Z,12.93
2018-08-11T02:33:42.772Z,12.87
2018-08-11T02:36:11.493Z,12.81
2018-08-11T02:38:40.467Z,12.76
2018-08-11T02:41:09.854Z,12.79
2018-08-11T02:43:38.853Z,12.78
2018-08-11T02:46:07.437Z,12.77
2018-08-11T02:48:36.095Z,12.76
2018-08-11T02:51:04.769Z,12.75
2018-08-11T02:53:33.647Z,12.72
2018-08-11T02:56:03.169Z,12.63
2018-08-11T02:58:32.343Z,12.61
2018-08-11T03:01:00.929Z,12.60
2018-08-11T03:03:30.007Z,12.60
2018-08-11T03:05:58.732Z,12.60
2018-08-11T03:08:27.508Z,12.60
2018-08-11T03:10:56.728Z,12.52
2018-08-11T03:13:26.118Z,12.47
2018-08-11T03:15:55.057Z,12.44
2018-08-11T03:18:23.928Z,12.38
2018-08-11T03:20:52.515Z,12.32
2018-08-11T03:23:21.434Z,12.31
2018-08-11T03:25:50.901Z,12.28
2018-08-11T03:28:19.566Z,12.26
2018-08-11T03:30:48.403Z,12.22
2018-08-11T03:33:17.518Z,12.19
2018-08-11T03:35:46.489Z,12.14
2018-08-11T03:38:15.210Z,12.16
2018-08-11T03:40:44.212Z,12.19
2018-08-11T03:43:12.869Z,12.15
2018-08-11T03:45:41.505Z,12.11
2018-08-11T03:48:10.193Z,12.04
2018-08-11T03:50:39.152Z,12.08
2018-08-11T03:53:07.724Z,12.07
2018-08-11T03:55:36.617Z,12.01
2018-08-11T03:58:06.330Z,11.96
2018-08-11T04:00:35.229Z,11.94
2018-08-11T04:03:04.039Z,11.91
2018-08-11T04:05:32.749Z,11.88
2018-08-11T04:08:02.054Z,11.82
2018-08-11T04:10:30.993Z,11.81
2018-08-11T04:13:00.398Z,11.82
2018-08-11T04:15:29.201Z,11.84
2018-08-11T04:17:57.964Z,11.87
2018-08-11T04:20:26.567Z,11.89
2018-08-11T04:22:55.219Z,11.88
2018-08-11T04:25:23.899Z,11.92
2018-08-11T04:27:52.548Z,11.93
2018-08-11T04:30:21.092Z,11.93
2018-08-11T04:32:50.408Z,11.93
2018-08-11T04:35:19.009Z,11.96
2018-08-11T04:37:48.859Z,12.00
2018-08-11T04:40:17.935Z,12.09
2018-08-11T04:42:47.737Z,12.18
2018-08-11T04:45:17.289Z,12.31
2018-08-11T04:47:46.128Z,12.46
2018-08-11T04:50:14.787Z,12.55
2018-08-11T04:52:43.595Z,12.67
2018-08-11T04:55:12.274Z,12.85
2018-08-11T04:57:41.279Z,13.07
2018-08-11T05:00:09.869Z,13.32
2018-08-11T05:02:38.611Z,13.70
2018-08-11T05:05:07.918Z,14.21
2018-08-11T05:07:36.759Z,14.63
2018-08-11T05:10:06.133Z,14.88
2018-08-11T05:12:34.797Z,14.99
2018-08-11T05:15:04.047Z,15.17
2018-08-11T05:17:32.745Z,15.24
2018-08-11T05:20:01.582Z,15.13
2018-08-11T05:22:30.213Z,15.25
2018-08-11T05:24:58.918Z,15.35
2018-08-11T05:27:28.242Z,15.20
2018-08-11T05:29:57.423Z,15.18
2018-08-11T05:32:26.031Z,15.27
2018-08-11T05:34:56.085Z,15.57
2018-08-11T05:37:25.054Z,15.76
2018-08-11T05:39:53.682Z,15.88
2018-08-11T05:42:22.501Z,15.63
2018-08-11T05:44:51.528Z,15.23
2018-08-11T05:47:20.140Z,15.27
2018-08-11T05:49:48.785Z,15.05
2018-08-11T05:52:17.664Z,14.95
2018-08-11T05:54:46.419Z,15.07
2018-08-11T05:57:15.907Z,15.41
2018-08-11T05:59:44.488Z,16.15
2018-08-11T06:02:13.383Z,17.60
2018-08-11T06:04:42.273Z,18.67
2018-08-11T06:07:10.891Z,19.99
2018-08-11T06:09:39.885Z,21.16
2018-08-11T06:12:08.649Z,22.11
2018-08-11T06:14:37.685Z,21.85
2018-08-11T06:17:06.971Z,21.28
2018-08-11T06:19:35.650Z,21.01
2018-08-11T06:22:04.519Z,21.80
2018-08-11T06:24:33.404Z,23.02
2018-08-11T06:27:02.039Z,23.69
2018-08-11T06:29:30.920Z,23.02
2018-08-11T06:32:00.498Z,22.01
2018-08-11T06:34:29.314Z,22.01
2018-08-11T06:36:58.163Z,21.92
2018-08-11T06:39:26.853Z,21.67
2018-08-11T06:41:55.682Z,22.22
2018-08-11T06:44:24.467Z,21.77
2018-08-11T06:46:53.211Z,22.10
2018-08-11T06:49:21.893Z,22.38
2018-08-11T06:51:50.588Z,22.43
2018-08-11T06:54:19.238Z,23.09
2018-08-11T06:56:48.598Z,24.20
2018-08-11T06:59:17.723Z,25.67
2018-08-11T07:01:46.948Z,27.32
2018-08-11T07:04:15.569Z,27.81
2018-08-11T07:06:44.589Z,28.03
2018-08-11T07:09:13.465Z,29.18
2018-08-11T07:11:42.523Z,29.45
2018-08-11T07:14:11.325Z,29.48
2018-08-11T07:16:40.260Z,29.04
2018-08-11T07:19:09.471Z,30.16
2018-08-11T07:21:38.260Z,30.42
2018-08-11T07:24:06.978Z,29.45
2018-08-11T07:26:36.608Z,28.92
2018-08-11T07:29:05.199Z,28.71
2018-08-11T07:31:33.823Z,27.59
2018-08-11T07:34:02.992Z,27.33
2018-08-11T07:36:31.688Z,25.75
2018-08-11T07:39:00.314Z,25.48
2018-08-11T07:41:29.684Z,25.33
2018-08-11T07:43:58.320Z,24.97
2018-08-11T07:46:27.170Z,26.13
2018-08-11T07:48:56.439Z,26.58
2018-08-11T07:51:25.114Z,28.02
2018-08-11T07:53:54.667Z,29.09
2018-08-11T07:56:23.303Z,29.95
2018-08-11T07:58:52.119Z,30.00
2018-08-11T08:01:21.052Z,30.86
2018-08-11T08:03:49.846Z,32.01
2018-08-11T08:06:18.733Z,31.24
2018-08-11T08:08:47.754Z,31.48
2018-08-11T08:11:17.264Z,32.71
2018-08-11T08:13:46.362Z,32.24
2018-08-11T08:16:14.925Z,33.39
2018-08-11T08:18:43.969Z,33.85
2018-08-11T08:21:12.906Z,35.60
2018-08-11T08:23:42.524Z,35.49
2018-08-11T08:26:11.324Z,33.98
2018-08-11T08:28:39.919Z,33.95
2018-08-11T08:31:08.554Z,32.89
2018-08-11T08:33:37.321Z,34.03
2018-08-11T08:36:06.579Z,34.39
2018-08-11T08:38:35.566Z,34.90
2018-08-11T08:41:04.350Z,36.65
2018-08-11T08:43:33.030Z,35.71
2018-08-11T08:46:02.555Z,34.59
2018-08-11T08:48:31.736Z,34.36
2018-08-11T08:51:01.020Z,32.99
2018-08-11T08:53:30.194Z,32.81
2018-08-11T08:55:59.015Z,33.82
2018-08-11T08:58:27.656Z,34.00
2018-08-11T09:00:56.363Z,34.41
2018-08-11T09:03:25.052Z,35.13
2018-08-11T09:05:54.800Z,37.16
2018-08-11T09:08:23.855Z,35.67
2018-08-11T09:10:52.907Z,33.77
2018-08-11T09:13:21.725Z,32.83
2018-08-11T09:15:50.411Z,33.09
2018-08-11T09:18:19.127Z,33.77
2018-08-11T09:20:47.881Z,35.16
2018-08-11T09:23:16.646Z,36.73
2018-08-11T09:25:45.246Z,36.98
2018-08-11T09:28:14.578Z,37.28
2018-08-11T09:30:43.600Z,36.69
2018-08-11T09:33:12.494Z,35.62
2018-08-11T09:35:41.767Z,35.03
2018-08-11T09:38:10.545Z,35.26
2018-08-11T09:40:39.639Z,36.22
2018-08-11T09:43:08.805Z,36.02
2018-08-11T09:45:37.836Z,33.16
2018-08-11T09:48:06.474Z,31.10
2018-08-11T09:50:36.614Z,32.79
2018-08-11T09:53:05.814Z,34.30
2018-08-11T09:55:34.517Z,34.19
2018-08-11T09:58:04.017Z,36.16
2018-08-11T10:00:37.946Z,38.07
2018-08-11T10:03:06.560Z,39.60
2018-08-11T10:05:35.871Z,40.40
2018-08-11T10:08:04.726Z,39.72
2018-08-11T10:10:33.329Z,38.96
2018-08-11T10:13:02.259Z,40.44
2018-08-11T10:15:31.816Z,41.56
2018-08-11T10:18:00.616Z,40.10
2018-08-11T10:20:29.435Z,37.81
2018-08-11T10:22:58.209Z,36.15
2018-08-11T10:25:27.239Z,34.02
2018-08-11T10:27:56.024Z,33.83
2018-08-11T10:30:24.996Z,36.99
2018-08-11T10:32:54.264Z,38.68
2018-08-11T10:35:23.081Z,39.57
2018-08-11T10:37:52.638Z,41.01
2018-08-11T10:40:21.618Z,42.43
2018-08-11T10:42:50.274Z,42.66
2018-08-11T10:45:19.252Z,41.30
2018-08-11T10:47:48.152Z,37.97
2018-08-11T10:50:17.760Z,37.06
2018-08-11T10:52:46.678Z,38.13
2018-08-11T10:55:15.489Z,37.83
2018-08-11T10:57:44.414Z,39.30
2018-08-11T11:00:13.818Z,38.96
2018-08-11T11:02:42.800Z,37.59
2018-08-11T11:05:12.177Z,38.56
2018-08-11T11:07:41.272Z,39.96
2018-08-11T11:10:10.181Z,41.98
2018-08-11T11:12:38.910Z,40.52
2018-08-11T11:15:08.356Z,37.91
2018-08-11T11:17:37.277Z,35.62
2018-08-11T11:20:08.485Z,33.94
2018-08-11T11:22:37.641Z,32.99
2018-08-11T11:25:06.860Z,32.80
2018-08-11T11:27:35.855Z,31.69
2018-08-11T11:30:05.259Z,32.52
2018-08-11T11:32:34.165Z,33.44
2018-08-11T11:35:03.047Z,35.12
2018-08-11T11:37:31.950Z,36.82
2018-08-11T11:40:01.076Z,38.62
2018-08-11T11:42:30.541Z,40.84
2018-08-11T11:44:59.392Z,42.01
2018-08-11T11:47:28.118Z,41.91
2018-08-11T11:49:57.306Z,41.74
2018-08-11T11:52:26.020Z,43.35
2018-08-11T11:54:55.480Z,40.03
2018-08-11T11:57:24.414Z,36.75
2018-08-11T11:59:54.093Z,35.53
2018-08-11T12:02:22.870Z,34.95
2018-08-11T12:04:52.442Z,33.83
2018-08-11T12:07:21.101Z,32.35
2018-08-11T12:09:49.944Z,31.14
2018-08-11T12:12:18.900Z,29.86
2018-08-11T12:14:48.616Z,30.72
2018-08-11T12:17:17.756Z,30.15
2018-08-11T12:19:46.772Z,30.36
2018-08-11T12:22:16.117Z,30.63
2018-08-11T12:24:44.932Z,29.79
2018-08-11T12:27:14.582Z,31.29
2018-08-11T12:29:43.370Z,34.87
2018-08-11T12:32:13.272Z,32.65
2018-08-11T12:34:42.165Z,33.70
2018-08-11T12:37:11.134Z,35.36
2018-08-11T12:39:39.972Z,37.95
2018-08-11T12:42:08.764Z,38.25
2018-08-11T12:44:37.935Z,38.75
2018-08-11T12:47:07.388Z,37.94
2018-08-11T12:49:36.147Z,39.25
2018-08-11T12:52:05.771Z,38.75
2018-08-11T12:54:34.882Z,36.74
2018-08-11T12:57:03.657Z,36.27
2018-08-11T12:59:32.404Z,35.54
2018-08-11T13:02:01.642Z,34.63
2018-08-11T13:04:30.491Z,36.94
2018-08-11T13:06:59.191Z,37.94
2018-08-11T13:09:28.346Z,35.53
2018-08-11T13:11:57.367Z,35.61
2018-08-11T13:14:26.058Z,36.15
2018-08-11T13:16:54.967Z,34.82
2018-08-11T13:19:24.892Z,33.98
2018-08-11T13:21:53.579Z,32.85
2018-08-11T13:24:22.274Z,31.86
2018-08-11T13:26:51.101Z,31.15
2018-08-11T13:29:20.161Z,31.59
2018-08-11T13:31:49.527Z,32.20
2018-08-11T13:34:18.432Z,33.61
2018-08-11T13:36:47.840Z,33.86
2018-08-11T13:39:16.522Z,33.41
2018-08-11T13:41:48.482Z,33.08
2018-08-11T13:44:18.986Z,33.88
2018-08-11T13:46:47.712Z,32.84
2018-08-11T13:49:16.522Z,31.73
2018-08-11T13:51:46.000Z,30.36
2018-08-11T13:54:14.666Z,30.23
2018-08-11T13:56:43.485Z,30.21
2018-08-11T13:59:12.356Z,30.61
2018-08-11T14:01:41.104Z,30.21
2018-08-11T14:04:09.863Z,29.90
2018-08-11T14:06:39.375Z,29.44
2018-08-11T14:09:08.953Z,29.02
2018-08-11T14:11:38.017Z,29.18
2018-08-11T14:14:06.777Z,28.67
2018-08-11T14:16:35.633Z,28.28
2018-08-11T14:19:05.593Z,28.68
2018-08-11T14:21:34.846Z,29.44
2018-08-11T14:24:03.948Z,29.56
2018-08-11T14:26:32.906Z,29.82
2018-08-11T14:29:02.573Z,29.80
2018-08-11T14:31:31.501Z,28.51
2018-08-11T14:34:00.976Z,28.48
2018-08-11T14:36:30.152Z,28.57
2018-08-11T14:38:58.256Z,28.12
2018-08-11T14:41:26.486Z,28.09
2018-08-11T14:43:54.708Z,28.28
2018-08-11T14:46:23.808Z,28.03
2018-08-11T14:48:51.872Z,28.04
2018-08-11T14:51:19.692Z,28.07
2018-08-11T14:53:47.819Z,27.82
2018-08-11T14:56:16.050Z,27.95
2018-08-11T14:58:44.217Z,27.69
2018-08-11T15:01:12.628Z,27.26
2018-08-11T15:03:40.416Z,26.95
2018-08-11T15:06:09.258Z,26.91
2018-08-11T15:08:37.308Z,27.32
2018-08-11T15:11:06.441Z,27.66
2018-08-11T15:13:34.757Z,27.70
2018-08-11T15:16:03.335Z,27.68
2018-08-11T15:18:31.978Z,27.77
2018-08-11T15:21:01.703Z,27.78
2018-08-11T15:23:30.221Z,27.74
2018-08-11T15:25:59.102Z,27.52
2018-08-11T15:28:27.137Z,27.36
2018-08-11T15:30:55.290Z,27.02
2018-08-11T15:33:23.692Z,27.09
2018-08-11T15:35:51.757Z,26.94
2018-08-11T15:38:19.668Z,26.93
2018-08-11T15:40:47.784Z,26.80
2018-08-11T15:43:15.992Z,26.85
2018-08-11T15:45:43.982Z,26.90
2018-08-11T15:48:17.683Z,27.09
2018-08-11T15:50:46.586Z,27.13
2018-08-11T15:53:14.462Z,27.01
2018-08-11T15:55:42.617Z,27.21
2018-08-11T15:58:11.117Z,27.11
2018-08-11T16:00:39.222Z,27.30
2018-08-11T16:03:07.132Z,27.19
2018-08-11T16:05:36.575Z,27.22
2018-08-11T16:08:05.923Z,27.16
2018-08-11T16:10:35.203Z,27.15
2018-08-11T16:13:04.437Z,26.97
2018-08-11T16:15:33.833Z,26.90
2018-08-11T16:18:03.128Z,26.81
2018-08-11T16:20:32.617Z,26.43
2018-08-11T16:23:01.425Z,26.52
2018-08-11T16:25:30.787Z,26.39
2018-08-11T16:28:00.157Z,26.40
2018-08-11T16:30:28.902Z,26.22
2018-08-11T16:32:58.563Z,26.03
2018-08-11T16:35:27.840Z,25.81
2018-08-11T16:37:56.934Z,25.53
2018-08-11T16:40:26.093Z,25.42
2018-08-11T16:42:55.055Z,25.35
2018-08-11T16:45:23.967Z,25.23
2018-08-11T16:47:52.902Z,25.14
2018-08-11T16:50:21.849Z,25.09
2018-08-11T16:52:50.668Z,25.03
2018-08-11T16:55:19.365Z,24.85
2018-08-11T16:57:48.139Z,24.79
2018-08-11T17:00:16.808Z,24.80
2018-08-11T17:02:45.901Z,24.79
2018-08-11T17:05:14.851Z,24.55
2018-08-11T17:07:43.658Z,24.51
2018-08-11T17:10:12.591Z,24.31
2018-08-11T17:12:41.931Z,24.04
2018-08-11T17:15:11.295Z,23.90
2018-08-11T17:17:40.210Z,23.81
2018-08-11T17:20:09.130Z,23.62
2018-08-11T17:22:38.381Z,23.43
2018-08-11T17:25:08.016Z,23.50
2018-08-11T17:27:36.761Z,23.59
2018-08-11T17:30:06.266Z,23.49
2018-08-11T17:32:35.776Z,23.47
2018-08-11T17:35:04.426Z,23.40
2018-08-11T17:37:33.222Z,23.38
2018-08-11T17:40:02.377Z,23.41
2018-08-11T17:42:31.091Z,23.34
2018-08-11T17:44:59.813Z,23.29
2018-08-11T17:47:28.858Z,23.20
2018-08-11T17:49:57.618Z,23.16
2018-08-11T17:52:26.521Z,23.26
2018-08-11T17:54:55.326Z,23.30
2018-08-11T17:57:26.094Z,23.33
2018-08-11T17:59:53.996Z,23.33
2018-08-11T18:02:23.548Z,23.29
2018-08-11T18:04:52.262Z,23.26
2018-08-11T18:07:21.058Z,23.26
2018-08-11T18:09:49.767Z,23.20
2018-08-11T18:12:18.548Z,23.11
2018-08-11T18:14:46.415Z,23.06
2018-08-11T18:17:15.668Z,22.97
2018-08-11T18:19:44.653Z,22.81
2018-08-11T18:22:14.388Z,22.74
2018-08-11T18:24:43.359Z,22.66
2018-08-11T18:27:12.693Z,22.55
2018-08-11T18:29:41.599Z,22.43
2018-08-11T18:32:10.279Z,22.33
2018-08-11T18:34:39.302Z,22.22
2018-08-11T18:37:08.539Z,22.15
2018-08-11T18:39:36.373Z,22.01
2018-08-11T18:42:05.096Z,21.92
2018-08-11T18:44:33.943Z,21.92
2018-08-11T18:47:03.445Z,21.78
2018-08-11T18:49:32.787Z,21.64
2018-08-11T18:52:02.007Z,21.59
2018-08-11T18:54:30.824Z,21.48
2018-08-11T18:57:00.469Z,21.35
2018-08-11T18:59:29.241Z,21.24
2018-08-11T19:01:58.919Z,21.04
2018-08-11T19:04:28.024Z,20.87
2018-08-11T19:06:57.266Z,20.72
2018-08-11T19:09:26.452Z,20.56
2018-08-11T19:11:55.681Z,20.52
2018-08-11T19:14:25.388Z,20.32
2018-08-11T19:16:54.347Z,20.21
2018-08-11T19:19:23.394Z,20.11
2018-08-11T19:21:52.833Z,19.91
2018-08-11T19:24:22.277Z,19.88
2018-08-11T19:26:51.208Z,19.73
2018-08-11T19:29:20.368Z,19.67
2018-08-11T19:31:49.527Z,19.59
2018-08-11T19:34:18.610Z,19.46
2018-08-11T19:36:47.930Z,19.37
2018-08-11T19:39:17.161Z,19.22
2018-08-11T19:41:46.604Z,19.12
2018-08-11T19:44:15.658Z,19.05
2018-08-11T19:46:44.916Z,19.01
2018-08-11T19:49:14.253Z,18.99
2018-08-11T19:51:43.404Z,18.87
2018-08-11T19:54:12.410Z,18.57
2018-08-11T19:56:41.822Z,18.58
2018-08-11T19:59:10.727Z,18.43
2018-08-11T20:01:39.683Z,18.24
2018-08-11T20:04:08.657Z,18.16
2018-08-11T20:06:37.784Z,17.96
2018-08-11T20:09:09.166Z,17.93
2018-08-11T20:11:38.596Z,17.85
2018-08-11T20:14:07.272Z,17.79
2018-08-11T20:16:36.453Z,17.75
2018-08-11T20:19:05.728Z,17.60
2018-08-11T20:21:34.986Z,17.47
2018-08-11T20:24:04.087Z,17.55
2018-08-11T20:26:33.434Z,17.46
2018-08-11T20:29:02.327Z,17.25
2018-08-11T20:31:31.056Z,17.18
2018-08-11T20:33:59.987Z,17.01
2018-08-11T20:36:29.220Z,16.95
2018-08-11T20:38:58.401Z,16.92
2018-08-11T20:41:28.044Z,16.85
2018-08-11T20:43:56.983Z,16.72
2018-08-11T20:46:25.754Z,16.55
2018-08-11T20:48:54.424Z,16.55
2018-08-11T20:51:23.607Z,16.43
2018-08-11T20:53:52.399Z,16.21
2018-08-11T20:56:21.084Z,16.10
2018-08-11T20:58:49.842Z,16.06
2018-08-11T21:01:18.683Z,16.02
2018-08-11T21:03:47.419Z,15.80
2018-08-11T21:06:16.997Z,15.80
2018-08-11T21:08:46.108Z,15.67
2018-08-11T21:11:15.473Z,15.57
2018-08-11T21:13:44.684Z,15.64
2018-08-11T21:16:13.978Z,15.53
2018-08-11T21:18:42.878Z,15.41
2018-08-11T21:21:13.349Z,15.32
2018-08-11T21:23:42.163Z,15.19
2018-08-11T21:26:10.919Z,15.11
2018-08-11T21:28:40.039Z,15.04
2018-08-11T21:31:08.827Z,15.05
2018-08-11T21:33:38.394Z,15.01
2018-08-11T21:36:07.767Z,14.99
2018-08-11T21:38:36.554Z,14.78
2018-08-11T21:41:05.304Z,14.75
2018-08-11T21:43:34.105Z,14.62
2018-08-11T21:46:03.139Z,14.58
2018-08-11T21:48:31.872Z,14.49
2018-08-11T21:51:00.648Z,14.51
2018-08-11T21:53:30.128Z,14.40
2018-08-11T21:55:58.897Z,14.31
2018-08-11T21:58:27.837Z,14.33
2018-08-11T22:01:05.908Z,14.24
2018-08-11T22:03:34.713Z,14.30
2018-08-11T22:06:03.428Z,14.23
2018-08-11T22:08:32.389Z,14.19
2018-08-11T22:11:01.199Z,14.14
2018-08-11T22:13:29.970Z,14.09
2018-08-11T22:15:58.803Z,14.07
2018-08-11T22:18:27.445Z,14.09
2018-08-11T22:20:56.048Z,13.99
2018-08-11T22:23:24.808Z,13.94
2018-08-11T22:25:53.639Z,13.86
2018-08-11T22:28:22.450Z,13.84
2018-08-11T22:30:51.514Z,13.70
2018-08-11T22:33:20.679Z,13.73
2018-08-11T22:35:50.081Z,13.73
2018-08-11T22:38:19.163Z,13.75
2018-08-11T22:40:48.004Z,13.59
2018-08-11T22:43:16.724Z,13.50
2018-08-11T22:45:45.543Z,13.49
2018-08-11T22:48:14.361Z,13.40
2018-08-11T22:50:43.004Z,13.30
2018-08-11T22:53:11.753Z,13.28
2018-08-11T22:55:40.858Z,13.20
2018-08-11T22:58:09.734Z,13.22
2018-08-11T23:00:39.238Z,13.18
2018-08-11T23:03:08.488Z,13.14
2018-08-11T23:05:37.888Z,13.08
2018-08-11T23:08:07.029Z,13.09
2018-08-11T23:10:35.818Z,12.97
2018-08-11T23:13:04.514Z,12.95
2018-08-11T23:15:33.309Z,12.97
2018-08-11T23:18:02.028Z,12.92
2018-08-11T23:20:31.009Z,12.85
2018-08-11T23:23:00.514Z,12.86
2018-08-11T23:25:29.762Z,12.78
2018-08-11T23:27:58.373Z,12.79
2018-08-11T23:30:27.068Z,12.77
2018-08-11T23:32:56.317Z,12.68
2018-08-11T23:35:25.408Z,12.56
2018-08-11T23:37:55.661Z,12.52
2018-08-11T23:40:24.430Z,12.51
2018-08-11T23:42:53.098Z,12.51
2018-08-11T23:45:22.195Z,12.44
2018-08-11T23:47:51.530Z,12.32
2018-08-11T23:50:20.655Z,12.27
2018-08-11T23:52:50.049Z,12.31
2018-08-11T23:55:19.334Z,12.32
2018-08-11T23:57:48.444Z,12.31
